Time;durP1;ratioP1;P1;durP2;ratioP2;P2;SDS_P1;SDS_P2;PMS_P1;PMS_P2;Temp;Humidity;BMP_temperature;BMP_pressure;BME280_temperature;BME280_humidity;BME280_pressure;Samples;Min_cycle;Max_cycle;Signal;HPM_P1;HPM_P2
2023/10/29 00:01:33;;;;;;;2.30;1.80;;;7.80;99.90;;;;;;5192432;28;20029;-68
2023/10/29 00:04:04;;;;;;;3.08;2.13;;;7.70;99.90;;;;;;5198425;28;20033;-71
2023/10/29 00:06:36;;;;;;;2.58;2.30;;;7.70;99.90;;;;;;5182514;28;20038;-67
2023/10/29 00:09:10;;;;;;;2.30;2.10;;;7.70;99.90;;;;;;5166135;28;20041;-65
2023/10/29 00:11:42;;;;;;;7.55;2.40;;;7.70;99.90;;;;;;5179609;28;20029;-70
2023/10/29 00:14:13;;;;;;;2.47;2.08;;;7.70;99.90;;;;;;5202245;28;20037;-63
2023/10/29 00:16:44;;;;;;;2.85;1.90;;;7.60;99.90;;;;;;5200443;28;20464;-65
2023/10/29 00:19:18;;;;;;;3.83;2.17;;;7.70;99.90;;;;;;5184649;28;20040;-69
2023/10/29 00:21:49;;;;;;;;;;;7.70;99.90;;;;;;5197737;28;20034;-67
2023/10/29 00:24:22;;;;;;;3.80;1.85;;;7.60;99.90;;;;;;5203364;28;19900;-67
2023/10/29 00:26:53;;;;;;;2.95;2.45;;;7.50;99.90;;;;;;5202652;28;20463;-63
2023/10/29 00:29:26;;;;;;;2.25;2.00;;;7.50;99.90;;;;;;5200705;28;20033;-70
2023/10/29 00:31:57;;;;;;;4.18;2.35;;;7.40;99.90;;;;;;5199328;28;20029;-71
2023/10/29 00:34:28;;;;;;;2.97;2.03;;;7.40;99.90;;;;;;5184160;28;20614;-66
2023/10/29 00:37:03;;;;;;;3.78;1.77;;;7.40;99.90;;;;;;5202205;28;20466;-66
2023/10/29 00:39:34;;;;;;;2.30;2.00;;;7.40;99.90;;;;;;5203757;28;20033;-68
2023/10/29 00:42:05;;;;;;;3.70;2.08;;;7.30;99.90;;;;;;5198541;28;20039;-67
2023/10/29 00:44:39;;;;;;;1.92;1.73;;;7.30;99.90;;;;;;5175430;28;20037;-65
2023/10/29 00:47:16;;;;;;;3.03;2.30;;;7.20;99.90;;;;;;5181953;28;20045;-66
2023/10/29 00:49:48;;;;;;;2.83;2.20;;;7.10;99.90;;;;;;5197276;28;20463;-68
2023/10/29 00:52:25;;;;;;;2.10;1.63;;;7.10;99.90;;;;;;5202053;28;20033;-67
2023/10/29 00:55:02;;;;;;;2.45;1.95;;;7.10;99.90;;;;;;5203080;28;20229;-68
2023/10/29 00:57:33;;;;;;;2.63;2.00;;;7.20;99.90;;;;;;5200529;28;20029;-63
2023/10/29 01:00:06;;;;;;;3.40;1.98;;;7.10;99.90;;;;;;5183742;28;20040;-69
2023/10/29 01:02:37;;;;;;;2.38;2.10;;;7.00;99.90;;;;;;5230590;22;20049;-69
2023/10/29 01:05:08;;;;;;;2.65;2.22;;;6.90;99.90;;;;;;5159646;28;20040;-66
2023/10/29 01:07:42;;;;;;;4.05;2.10;;;6.90;99.90;;;;;;5189634;28;20064;-68
2023/10/29 01:10:15;;;;;;;3.73;2.17;;;6.90;99.90;;;;;;5182610;28;20486;-65
2023/10/29 01:12:46;;;;;;;2.92;2.08;;;6.90;99.90;;;;;;5168198;28;20025;-66
2023/10/29 01:15:20;;;;;;;2.08;1.90;;;6.90;99.90;;;;;;5199363;28;20524;-66
2023/10/29 01:17:51;;;;;;;3.03;1.95;;;7.00;99.90;;;;;;5168365;28;20044;-66
2023/10/29 01:20:23;;;;;;;2.75;2.15;;;7.00;99.90;;;;;;5184954;28;20052;-68
2023/10/29 01:22:54;;;;;;;3.38;2.08;;;6.90;99.90;;;;;;5183387;28;20025;-64
2023/10/29 01:25:29;;;;;;;2.53;2.10;;;6.90;99.90;;;;;;5182686;28;20047;-68
2023/10/29 01:28:00;;;;;;;2.28;2.08;;;6.80;99.90;;;;;;5168317;28;20280;-63
2023/10/29 01:30:34;;;;;;;1.70;1.60;;;6.80;99.90;;;;;;5198502;28;20638;-66
2023/10/29 01:33:05;;;;;;;3.20;2.15;;;6.80;99.90;;;;;;5166573;28;20348;-66
2023/10/29 01:35:36;;;;;;;2.15;1.95;;;6.70;99.90;;;;;;5183194;28;20030;-68
2023/10/29 01:38:13;;;;;;;3.60;2.08;;;6.50;99.90;;;;;;5183224;28;20059;-65
2023/10/29 01:40:46;;;;;;;3.38;2.03;;;6.40;99.90;;;;;;5166766;28;20043;-65
2023/10/29 01:43:17;;;;;;;6.25;1.85;;;6.40;99.90;;;;;;5200231;28;20044;-69
2023/10/29 01:45:48;;;;;;;2.42;1.65;;;6.40;99.90;;;;;;5181509;28;20035;-66
2023/10/29 01:48:24;;;;;;;5.70;2.00;;;6.40;99.90;;;;;;5184426;28;20233;-71
2023/10/29 01:51:02;;;;;;;2.63;2.00;;;6.40;99.90;;;;;;5200716;28;20052;-65
2023/10/29 01:53:33;;;;;;;3.10;2.30;;;6.30;99.90;;;;;;5168448;28;20405;-66
2023/10/29 01:56:12;;;;;;;3.45;2.15;;;6.30;99.90;;;;;;5191027;28;20025;-68
2023/10/29 01:58:46;;;;;;;2.78;1.80;;;6.30;99.90;;;;;;5171600;28;20057;-64
2023/10/29 02:01:17;;;;;;;4.72;2.00;;;6.20;99.90;;;;;;5190938;28;20049;-63
2023/10/29 02:03:50;;;;;;;2.70;1.90;;;6.10;99.90;;;;;;5163455;28;20036;-65
2023/10/29 02:06:23;;;;;;;3.33;2.08;;;6.10;99.90;;;;;;5143030;28;20038;-64
2023/10/29 02:08:54;;;;;;;2.65;2.17;;;6.00;99.90;;;;;;5143085;28;20113;-67
2023/10/29 02:11:25;;;;;;;6.97;2.25;;;6.10;99.90;;;;;;5164101;28;20042;-64
2023/10/29 02:13:59;;;;;;;6.20;1.70;;;6.10;99.90;;;;;;5160471;28;20489;-65
2023/10/29 02:16:32;;;;;;;2.17;1.98;;;6.20;99.90;;;;;;5151900;28;20215;-66
2023/10/29 02:19:07;;;;;;;2.25;1.65;;;6.20;99.90;;;;;;5156567;28;20042;-66
2023/10/29 02:21:38;;;;;;;;;;;6.20;99.90;;;;;;5159347;28;20042;-66
2023/10/29 02:24:09;;;;;;;2.42;1.60;;;6.20;99.90;;;;;;5167805;28;19980;-65
2023/10/29 02:26:43;;;;;;;7.97;1.63;;;6.10;99.90;;;;;;5180347;28;20530;-66
2023/10/29 02:29:14;;;;;;;1.77;1.60;;;6.00;99.90;;;;;;5180135;28;20030;-64
2023/10/29 02:31:46;;;;;;;2.80;1.60;;;5.90;99.90;;;;;;5178319;28;20460;-66
2023/10/29 02:34:17;;;;;;;2.08;1.60;;;6.00;99.90;;;;;;5179592;28;20017;-66
2023/10/29 02:36:48;;;;;;;2.03;1.50;;;6.00;99.90;;;;;;5161258;28;20132;-66
2023/10/29 02:39:19;;;;;;;2.25;1.70;;;5.90;99.90;;;;;;5179541;28;20034;-65
2023/10/29 02:41:51;;;;;;;3.47;1.77;;;6.00;99.90;;;;;;5163024;28;20018;-63
2023/10/29 02:44:22;;;;;;;2.13;1.42;;;5.90;99.90;;;;;;5181082;28;20117;-65
2023/10/29 02:46:53;;;;;;;1.88;1.55;;;5.90;99.90;;;;;;5156440;28;20022;-63
2023/10/29 02:49:25;;;;;;;2.72;1.42;;;6.00;99.90;;;;;;5151332;28;20135;-66
2023/10/29 02:51:56;;;;;;;7.00;2.13;;;6.00;99.90;;;;;;5170510;28;20066;-64
2023/10/29 02:54:27;;;;;;;2.38;1.92;;;6.10;99.90;;;;;;5146806;28;20058;-64
2023/10/29 02:57:02;;;;;;;2.58;1.40;;;6.00;99.90;;;;;;5143033;28;20044;-66
2023/10/29 02:59:33;;;;;;;3.25;2.45;;;5.80;99.90;;;;;;5144217;28;20053;-66
2023/10/29 03:02:07;;;;;;;1.92;1.40;;;5.80;99.90;;;;;;5174658;28;20049;-66
2023/10/29 03:04:38;;;;;;;2.60;1.65;;;5.90;99.90;;;;;;5165131;28;20036;-64
2023/10/29 03:07:12;;;;;;;2.30;1.50;;;5.80;99.90;;;;;;5148817;28;20048;-68
2023/10/29 03:09:43;;;;;;;2.60;1.67;;;5.80;99.90;;;;;;5162489;28;20056;-66
2023/10/29 03:12:14;;;;;;;2.38;1.50;;;5.90;99.90;;;;;;5166333;28;20264;-65
2023/10/29 03:14:48;;;;;;;1.63;1.48;;;5.90;99.90;;;;;;5158583;28;20037;-64
2023/10/29 03:17:19;;;;;;;1.73;1.52;;;5.80;99.90;;;;;;5171222;28;20397;-66
2023/10/29 03:19:50;;;;;;;2.33;1.45;;;5.80;99.90;;;;;;5166277;28;20030;-64
2023/10/29 03:22:21;;;;;;;3.30;1.65;;;5.70;99.90;;;;;;5180833;28;20037;-64
2023/10/29 03:24:59;;;;;;;2.22;1.73;;;5.60;99.90;;;;;;5193002;28;20034;-65
2023/10/29 03:27:30;;;;;;;1.75;1.60;;;5.50;99.90;;;;;;5141091;28;20301;-63
2023/10/29 03:30:01;;;;;;;2.97;2.47;;;5.50;99.90;;;;;;5141166;28;20323;-63
2023/10/29 03:32:33;;;;;;;4.72;2.53;;;5.40;99.90;;;;;;5122122;28;20302;-66
2023/10/29 03:35:04;;;;;;;5.05;2.53;;;5.30;99.90;;;;;;5160872;28;20055;-65
2023/10/29 03:37:35;;;;;;;3.00;1.88;;;5.40;99.90;;;;;;5145441;28;20032;-63
2023/10/29 03:40:10;;;;;;;2.25;1.90;;;5.40;99.90;;;;;;5145050;28;20029;-67
2023/10/29 03:42:41;;;;;;;;;;;5.40;99.90;;;;;;5145521;28;20036;-65
2023/10/29 03:45:15;;;;;;;2.42;1.90;;;5.40;99.90;;;;;;5157683;28;19901;-63
2023/10/29 03:47:46;;;;;;;2.67;1.73;;;5.40;99.90;;;;;;5146300;28;20370;-64
2023/10/29 03:50:17;;;;;;;4.75;1.70;;;5.30;99.90;;;;;;5182957;28;20308;-63
2023/10/29 03:52:49;;;;;;;3.10;2.67;;;5.20;99.90;;;;;;5164707;28;20452;-64
2023/10/29 03:55:24;;;;;;;2.28;1.88;;;5.20;99.90;;;;;;5164670;28;20030;-65
2023/10/29 03:57:56;;;;;;;3.25;2.38;;;5.20;99.90;;;;;;5173847;28;20025;-65
2023/10/29 04:00:27;;;;;;;3.85;2.10;;;5.30;99.90;;;;;;5141147;28;20411;-65
2023/10/29 04:02:58;;;;;;;2.47;1.90;;;5.20;99.90;;;;;;5144695;28;20037;-63
2023/10/29 04:05:34;;;;;;;3.33;2.00;;;5.10;99.90;;;;;;5183664;28;20028;-63
2023/10/29 04:08:11;;;;;;;4.38;1.85;;;5.10;99.90;;;;;;5165811;28;20025;-65
2023/10/29 04:10:45;;;;;;;3.70;1.60;;;5.10;99.90;;;;;;5165018;28;20042;-63
2023/10/29 04:13:16;;;;;;;3.10;2.33;;;5.10;99.90;;;;;;5183164;28;20036;-70
2023/10/29 04:15:47;;;;;;;2.42;2.20;;;5.00;99.90;;;;;;5179915;28;20409;-65
2023/10/29 04:18:24;;;;;;;2.45;2.22;;;4.90;99.90;;;;;;5182767;28;20030;-63
2023/10/29 04:21:00;;;;;;;4.75;2.47;;;5.00;99.90;;;;;;5148983;28;20321;-64
2023/10/29 04:23:34;;;;;;;3.08;2.40;;;5.00;99.90;;;;;;5165583;28;20029;-65
2023/10/29 04:26:06;;;;;;;3.45;2.40;;;5.00;99.90;;;;;;5148578;28;20322;-66
2023/10/29 04:28:37;;;;;;;4.13;3.03;;;5.00;99.90;;;;;;5168115;28;20176;-64
2023/10/29 04:31:11;;;;;;;9.82;3.47;;;5.10;99.90;;;;;;5159597;28;20034;-65
2023/10/29 04:33:48;;;;;;;7.05;3.55;;;5.20;99.90;;;;;;5144838;28;20086;-64
2023/10/29 04:36:23;;;;;;;9.02;3.63;;;5.20;99.90;;;;;;5163000;28;20037;-65
2023/10/29 04:38:56;;;;;;;6.88;3.63;;;5.30;99.90;;;;;;5144137;28;20056;-63
2023/10/29 04:41:27;;;;;;;4.07;3.13;;;5.30;99.90;;;;;;5162265;28;20143;-62
2023/10/29 04:43:58;;;;;;;6.18;3.05;;;5.40;99.90;;;;;;5162034;28;20030;-64
2023/10/29 04:46:32;;;;;;;6.00;3.25;;;5.40;99.90;;;;;;5124731;28;20040;-64
2023/10/29 04:49:05;;;;;;;10.93;3.65;;;5.50;99.90;;;;;;5127946;28;20268;-62
2023/10/29 04:51:37;;;;;;;15.02;4.05;;;5.50;99.90;;;;;;5143834;28;20129;-64
2023/10/29 04:54:10;;;;;;;11.32;4.22;;;5.70;99.90;;;;;;5162491;28;20030;-63
2023/10/29 04:56:41;;;;;;;12.60;5.10;;;5.70;99.90;;;;;;5144064;28;20030;-66
2023/10/29 04:59:13;;;;;;;8.10;4.93;;;5.70;99.90;;;;;;5143636;28;20022;-66
2023/10/29 05:01:44;;;;;;;7.45;4.40;;;5.70;99.90;;;;;;5144035;28;20037;-61
2023/10/29 05:04:18;;;;;;;5.60;3.97;;;5.60;99.90;;;;;;5159373;28;20367;-64
2023/10/29 05:06:51;;;;;;;8.40;4.25;;;5.50;99.90;;;;;;5159388;28;20036;-65
2023/10/29 05:09:25;;;;;;;9.87;4.23;;;5.50;99.90;;;;;;5164403;28;20034;-65
2023/10/29 05:11:57;;;;;;;9.32;4.07;;;5.50;99.90;;;;;;5182709;28;20350;-61
2023/10/29 05:14:31;;;;;;;14.45;4.28;;;5.40;99.90;;;;;;5145319;28;20036;-63
2023/10/29 05:17:04;;;;;;;8.17;3.43;;;5.40;99.90;;;;;;5162124;28;20314;-65
2023/10/29 05:19:35;;;;;;;9.00;3.60;;;5.30;99.90;;;;;;5149395;28;20038;-64
2023/10/29 05:22:07;;;;;;;4.75;2.65;;;5.20;99.90;;;;;;5182693;28;20034;-66
2023/10/29 05:24:38;;;;;;;7.80;3.53;;;5.10;99.90;;;;;;5181473;28;20029;-65
2023/10/29 05:27:12;;;;;;;7.32;4.65;;;5.00;99.90;;;;;;5181251;28;20038;-65
2023/10/29 05:29:47;;;;;;;12.43;5.32;;;4.90;99.90;;;;;;5128324;28;20040;-63
2023/10/29 05:32:20;;;;;;;12.15;6.15;;;4.90;99.90;;;;;;5162445;28;20249;-67
2023/10/29 05:34:52;;;;;;;42.90;15.60;;;4.90;99.90;;;;;;5183328;28;20043;-61
2023/10/29 05:37:25;;;;;;;18.35;8.20;;;5.00;99.90;;;;;;5164083;28;20021;-63
2023/10/29 05:39:56;;;;;;;9.67;4.40;;;5.00;99.90;;;;;;5183094;28;20191;-62
2023/10/29 05:42:29;;;;;;;6.95;3.45;;;5.10;99.90;;;;;;5162917;28;20256;-64
2023/10/29 05:45:06;;;;;;;5.80;3.53;;;5.20;99.90;;;;;;5156567;28;20332;-64
2023/10/29 05:47:41;;;;;;;4.18;3.13;;;5.20;99.90;;;;;;5181817;28;20061;-63
2023/10/29 05:50:13;;;;;;;6.10;3.03;;;5.20;99.90;;;;;;5182346;28;20026;-63
2023/10/29 05:52:48;;;;;;;4.15;3.03;;;5.20;99.90;;;;;;5163134;28;20229;-65
2023/10/29 05:55:22;;;;;;;5.30;3.25;;;5.20;99.90;;;;;;5153857;28;20339;-66
2023/10/29 05:57:53;;;;;;;5.43;3.45;;;5.20;99.90;;;;;;5140702;28;20034;-63
2023/10/29 06:00:27;;;;;;;5.13;2.95;;;5.20;99.90;;;;;;5157450;28;20048;-63
2023/10/29 06:02:59;;;;;;;5.10;3.40;;;5.40;99.90;;;;;;5179545;28;20037;-64
2023/10/29 06:05:30;;;;;;;4.60;4.03;;;5.50;99.90;;;;;;5181487;28;20451;-63
2023/10/29 06:08:05;;;;;;;7.10;3.95;;;5.60;99.90;;;;;;5161465;28;20021;-64
2023/10/29 06:10:38;;;;;;;5.13;3.78;;;5.70;99.90;;;;;;5164146;28;20037;-63
2023/10/29 06:13:10;;;;;;;7.35;4.25;;;5.80;99.90;;;;;;5148245;28;20328;-63
2023/10/29 06:15:41;;;;;;;7.25;4.22;;;5.90;99.90;;;;;;5144235;28;20022;-64
2023/10/29 06:18:13;;;;;;;6.43;4.63;;;5.90;99.90;;;;;;5181374;28;20039;-62
2023/10/29 06:20:46;;;;;;;7.53;4.93;;;6.00;99.90;;;;;;5181780;28;20033;-66
2023/10/29 06:23:23;;;;;;;6.13;4.85;;;6.10;99.90;;;;;;5161730;28;20372;-64
2023/10/29 06:25:55;;;;;;;9.65;5.47;;;6.10;99.90;;;;;;5178114;28;20034;-63
2023/10/29 06:28:26;;;;;;;9.95;5.47;;;6.20;99.90;;;;;;5155844;28;20303;-63
2023/10/29 06:31:00;;;;;;;14.23;5.43;;;6.30;99.90;;;;;;5178674;28;20337;-63
2023/10/29 06:33:31;;;;;;;11.98;6.32;;;6.50;99.90;;;;;;5131318;28;20223;-63
2023/10/29 06:36:02;;;;;;;10.20;5.30;;;6.80;99.90;;;;;;5180665;28;20034;-61
2023/10/29 06:38:36;;;;;;;12.80;6.03;;;7.00;99.90;;;;;;5156025;28;20108;-65
2023/10/29 06:41:10;;;;;;;10.63;6.32;;;7.30;99.90;;;;;;5147183;28;20041;-65
2023/10/29 06:43:41;;;;;;;21.52;6.60;;;7.50;99.90;;;;;;5163751;28;20184;-65
2023/10/29 06:46:15;;;;;;;24.83;6.68;;;7.40;99.90;;;;;;5175472;28;20025;-65
2023/10/29 06:48:46;;;;;;;14.48;6.35;;;7.50;99.90;;;;;;5148977;28;20371;-66
2023/10/29 06:51:19;;;;;;;38.80;6.35;;;7.60;99.90;;;;;;5180820;28;20038;-62
2023/10/29 06:53:50;;;;;;;30.75;6.20;;;7.70;99.90;;;;;;5180444;28;20414;-65
2023/10/29 06:56:21;;;;;;;12.38;5.72;;;7.70;99.90;;;;;;5178555;28;20210;-62
2023/10/29 06:58:55;;;;;;;11.68;5.15;;;7.80;99.90;;;;;;5179977;28;20044;-65
2023/10/29 07:01:32;;;;;;;13.23;6.07;;;7.90;99.90;;;;;;5174059;28;20155;-65
2023/10/29 07:04:03;;;;;;;9.38;5.40;;;8.00;99.90;;;;;;5180793;28;20029;-67
2023/10/29 07:06:35;;;;;;;11.63;5.47;;;8.30;99.90;;;;;;5179807;28;20428;-64
2023/10/29 07:09:09;;;;;;;10.52;5.90;;;8.40;99.90;;;;;;5164552;28;20036;-64
2023/10/29 07:11:40;;;;;;;7.80;4.72;;;8.60;99.90;;;;;;5180661;28;20044;-65
2023/10/29 07:14:12;;;;;;;5.60;3.63;;;8.70;99.90;;;;;;5180397;28;20144;-64
2023/10/29 07:16:47;;;;;;;4.38;3.33;;;8.60;99.90;;;;;;5176690;28;20030;-65
2023/10/29 07:19:19;;;;;;;3.72;2.53;;;8.50;99.90;;;;;;5147281;28;20029;-65
2023/10/29 07:21:55;;;;;;;3.53;2.47;;;8.60;99.90;;;;;;5163596;28;20314;-66
2023/10/29 07:24:29;;;;;;;5.65;2.53;;;8.70;99.90;;;;;;5150514;28;20026;-64
2023/10/29 07:27:01;;;;;;;3.30;2.67;;;8.90;99.90;;;;;;5180279;28;20030;-63
2023/10/29 07:29:32;;;;;;;4.53;3.22;;;9.20;99.90;;;;;;5131669;28;20030;-63
2023/10/29 07:32:06;;;;;;;7.53;3.63;;;9.40;99.90;;;;;;5154582;28;20254;-64
2023/10/29 07:34:41;;;;;;;6.63;4.07;;;9.60;99.90;;;;;;5150805;28;20257;-65
2023/10/29 07:37:12;;;;;;;;;;;9.80;99.90;;;;;;5151354;28;20440;-64
2023/10/29 07:39:43;;;;;;;5.45;3.53;;;9.80;97.70;;;;;;5167054;28;19908;-65
2023/10/29 07:42:14;;;;;;;6.68;4.05;;;10.20;99.90;;;;;;5184408;28;20029;-64
2023/10/29 07:44:45;;;;;;;5.13;3.00;;;10.40;70.10;;;;;;5185113;28;20022;-64
2023/10/29 07:47:19;;;;;;;7.80;4.75;;;10.50;25.00;;;;;;5181718;28;20026;-62
2023/10/29 07:49:55;;;;;;;3.80;3.35;;;10.70;8.40;;;;;;5138344;28;20030;-62
2023/10/29 07:52:26;;;;;;;4.45;3.55;;;10.90;1.00;;;;;;5151810;28;20342;-66
2023/10/29 07:54:57;;;;;;;5.55;3.90;;;10.90;1.00;;;;;;5150465;28;20218;-65
2023/10/29 07:57:28;;;;;;;4.70;3.10;;;10.80;1.00;;;;;;5181407;28;20020;-63
2023/10/29 08:00:01;;;;;;;6.18;3.78;;;10.70;1.00;;;;;;5129727;28;20030;-65
2023/10/29 08:02:37;;;;;;;7.57;4.75;;;10.50;78.60;;;;;;5174479;28;20036;-65
2023/10/29 08:05:11;;;;;;;8.27;4.53;;;10.50;99.90;;;;;;5150534;28;20140;-64
2023/10/29 08:07:48;;;;;;;8.63;4.40;;;10.40;99.90;;;;;;5165257;28;20033;-65
2023/10/29 08:10:19;;;;;;;10.57;4.68;;;10.20;99.90;;;;;;5150899;28;20057;-64
2023/10/29 08:12:54;;;;;;;7.25;4.55;;;10.20;99.90;;;;;;5146182;28;20042;-65
2023/10/29 08:15:27;;;;;;;21.05;5.25;;;10.30;99.90;;;;;;5127532;28;20038;-65
2023/10/29 08:17:58;;;;;;;7.28;4.78;;;10.30;99.90;;;;;;5146772;28;20026;-65
2023/10/29 08:20:35;;;;;;;7.28;4.78;;;10.50;99.90;;;;;;5164031;28;20402;-64
2023/10/29 08:23:06;;;;;;;9.55;5.05;;;10.60;99.90;;;;;;5183737;28;20036;-65
2023/10/29 08:25:38;;;;;;;6.00;3.92;;;10.80;99.90;;;;;;5185973;28;20025;-64
2023/10/29 08:28:09;;;;;;;15.27;5.00;;;10.90;99.90;;;;;;5163132;28;20052;-62
2023/10/29 08:30:43;;;;;;;6.38;4.68;;;10.60;99.90;;;;;;5180319;28;20034;-66
2023/10/29 08:33:19;;;;;;;8.48;4.78;;;10.60;99.90;;;;;;5181175;28;20040;-64
2023/10/29 08:35:50;;;;;;;8.13;4.70;;;10.80;99.90;;;;;;5182368;28;20028;-66
2023/10/29 08:38:31;;;;;;;11.20;4.90;;;10.70;99.90;;;;;;5183856;28;20025;-63
2023/10/29 08:41:23;;;;;;;7.57;4.28;;;10.70;99.90;;;;;;5183967;28;20040;-65
2023/10/29 08:43:54;;;;;;;7.10;4.50;;;10.90;99.90;;;;;;5182861;28;20030;-62
2023/10/29 08:46:27;;;;;;;10.13;5.18;;;10.90;99.90;;;;;;5180120;28;20021;-64
2023/10/29 08:48:58;;;;;;;12.25;5.40;;;10.90;99.90;;;;;;5148831;28;20161;-63
2023/10/29 08:51:32;;;;;;;10.35;5.43;;;11.00;99.90;;;;;;5182340;28;20231;-68
2023/10/29 08:54:04;;;;;;;7.55;4.72;;;11.00;99.90;;;;;;5149318;28;20033;-64
2023/10/29 08:56:39;;;;;;;7.72;4.85;;;11.10;99.90;;;;;;5149221;28;20197;-64
2023/10/29 08:59:12;;;;;;;10.52;4.78;;;11.10;99.90;;;;;;5164893;28;20026;-64
2023/10/29 09:01:48;;;;;;;12.88;5.10;;;11.10;99.90;;;;;;5179545;28;20039;-67
2023/10/29 09:04:22;;;;;;;6.95;3.95;;;11.00;99.90;;;;;;5149230;28;20030;-64
2023/10/29 09:06:59;;;;;;;10.02;5.25;;;11.00;99.90;;;;;;5150047;28;20030;-63
2023/10/29 09:09:31;;;;;;;9.90;5.30;;;10.90;99.90;;;;;;5134232;28;20284;-66
2023/10/29 09:12:02;;;;;;;7.93;4.93;;;11.10;99.90;;;;;;5152048;28;20054;-68
2023/10/29 09:14:37;;;;;;;7.22;5.00;;;11.10;99.90;;;;;;5185355;28;20033;-65
2023/10/29 09:17:10;;;;;;;8.10;4.85;;;11.20;99.90;;;;;;5148473;28;20022;-62
2023/10/29 09:19:43;;;;;;;7.47;4.93;;;11.00;99.90;;;;;;5182412;28;20030;-67
2023/10/29 09:22:19;;;;;;;9.83;4.80;;;10.90;99.90;;;;;;5183944;28;20032;-64
2023/10/29 09:24:50;;;;;;;9.00;5.03;;;11.00;99.90;;;;;;5180830;28;20030;-67
2023/10/29 09:27:23;;;;;;;16.92;5.25;;;11.10;99.90;;;;;;5165499;28;20033;-65
2023/10/29 09:29:55;;;;;;;8.00;5.55;;;11.10;99.90;;;;;;5128329;28;20034;-65
2023/10/29 09:32:31;;;;;;;7.40;5.20;;;11.10;99.90;;;;;;5152827;28;20033;-65
2023/10/29 09:35:05;;;;;;;6.55;4.80;;;11.30;99.90;;;;;;5182665;28;20017;-65
2023/10/29 09:37:42;;;;;;;9.63;5.78;;;11.30;99.90;;;;;;5165390;28;20034;-64
2023/10/29 09:40:18;;;;;;;7.85;5.57;;;11.20;99.90;;;;;;5156595;28;20025;-64
2023/10/29 09:42:54;;;;;;;8.85;5.22;;;11.00;99.90;;;;;;5182582;28;20048;-64
2023/10/29 09:45:27;;;;;;;10.05;6.28;;;11.20;99.90;;;;;;5161217;28;20029;-65
2023/10/29 09:47:58;;;;;;;7.50;5.68;;;11.30;99.90;;;;;;5166234;28;20034;-65
2023/10/29 09:50:33;;;;;;;7.50;4.95;;;11.40;99.90;;;;;;5166566;28;20034;-64
2023/10/29 09:53:04;;;;;;;;;;;11.40;99.90;;;;;;5182547;28;20223;-65
2023/10/29 09:55:35;;;;;;;7.85;4.90;;;11.30;99.90;;;;;;5182510;28;20182;-65
2023/10/29 09:58:07;;;;;;;6.97;4.75;;;11.10;99.90;;;;;;5154944;28;20026;-63
2023/10/29 10:00:42;;;;;;;7.57;5.07;;;11.20;99.90;;;;;;5178418;28;20167;-64
2023/10/29 10:03:16;;;;;;;7.20;5.15;;;11.20;99.90;;;;;;5192164;28;20036;-64
2023/10/29 10:05:49;;;;;;;7.25;4.60;;;11.40;99.90;;;;;;5148134;28;20034;-64
2023/10/29 10:08:30;;;;;;;6.97;4.72;;;11.60;99.90;;;;;;5181279;28;20025;-65
2023/10/29 10:11:02;;;;;;;7.50;4.30;;;11.90;99.90;;;;;;5164717;28;20434;-64
2023/10/29 10:13:37;;;;;;;7.85;5.68;;;11.70;93.20;;;;;;5182304;28;20299;-64
2023/10/29 10:16:14;;;;;;;7.65;5.47;;;11.50;99.90;;;;;;5178551;28;20241;-62
2023/10/29 10:18:57;;;;;;;13.02;5.18;;;11.40;99.90;;;;;;5165474;28;20040;-64
2023/10/29 10:21:44;;;;;;;9.80;5.43;;;11.20;99.90;;;;;;5164921;28;20365;-63
2023/10/29 10:24:19;;;;;;;7.70;5.47;;;11.40;99.90;;;;;;5161423;28;20206;-64
2023/10/29 10:26:50;;;;;;;6.93;4.82;;;11.70;99.90;;;;;;5147554;28;20030;-65
2023/10/29 10:29:32;;;;;;;8.27;5.03;;;11.80;98.80;;;;;;5163124;28;20036;-64
2023/10/29 10:32:06;;;;;;;7.50;5.38;;;11.70;99.90;;;;;;5157034;28;20033;-66
2023/10/29 10:34:53;;;;;;;8.30;6.13;;;11.70;99.90;;;;;;5165251;28;20053;-65
2023/10/29 10:37:25;;;;;;;8.25;5.93;;;11.70;99.90;;;;;;5182700;28;20016;-66
2023/10/29 10:39:58;;;;;;;8.48;5.32;;;11.60;99.90;;;;;;5170166;28;20034;-65
2023/10/29 10:42:29;;;;;;;8.88;5.60;;;11.90;99.90;;;;;;5149483;28;20034;-64
2023/10/29 10:45:05;;;;;;;8.57;5.75;;;12.00;99.90;;;;;;5181832;28;20304;-63
2023/10/29 10:47:36;;;;;;;7.03;5.28;;;12.00;99.90;;;;;;5144560;28;20219;-62
2023/10/29 10:50:13;;;;;;;8.60;5.50;;;12.00;99.90;;;;;;5181086;28;20117;-64
2023/10/29 10:52:45;;;;;;;6.82;5.60;;;12.30;99.90;;;;;;5150294;28;20034;-65
2023/10/29 10:55:17;;;;;;;5.50;4.85;;;12.60;1.00;;;;;;5176166;28;20152;-64
2023/10/29 10:57:52;;;;;;;6.70;4.70;;;12.50;1.00;;;;;;5126315;28;20041;-62
2023/10/29 11:00:34;;;;;;;5.07;3.83;;;12.50;1.00;;;;;;5157751;28;20027;-63
2023/10/29 11:03:08;;;;;;;8.75;5.88;;;12.70;1.00;;;;;;5158582;28;20041;-65
2023/10/29 11:05:43;;;;;;;6.95;4.70;;;13.00;1.00;;;;;;5163667;28;20246;-66
2023/10/29 11:08:16;;;;;;;6.20;3.88;;;13.40;1.00;;;;;;5133839;28;20487;-66
2023/10/29 11:10:47;;;;;;;7.18;4.15;;;13.50;1.00;;;;;;5180346;28;20018;-62
2023/10/29 11:13:22;;;;;;;6.20;3.70;;;13.80;1.00;;;;;;5163726;28;20034;-65
2023/10/29 11:15:54;;;;;;;5.18;4.25;;;14.30;1.00;;;;;;5145174;28;20214;-62
2023/10/29 11:18:31;;;;;;;4.85;3.75;;;14.70;1.00;;;;;;5149548;28;20026;-63
2023/10/29 11:21:04;;;;;;;4.13;3.67;;;14.90;1.00;;;;;;5184035;28;20026;-62
2023/10/29 11:23:38;;;;;;;4.43;4.03;;;15.10;1.00;;;;;;5148668;28;20040;-64
2023/10/29 11:26:27;;;;;;;5.00;4.40;;;15.10;1.00;;;;;;5147785;28;20493;-64
2023/10/29 11:28:58;;;;;;;4.63;3.97;;;15.20;1.00;;;;;;5163531;28;20034;-63
2023/10/29 11:31:29;;;;;;;6.30;3.97;;;15.70;99.90;;;;;;5143894;28;20064;-66
2023/10/29 11:34:06;;;;;;;5.72;3.83;;;15.90;99.90;;;;;;5181280;28;20040;-63
2023/10/29 11:36:41;;;;;;;6.18;4.30;;;16.00;99.90;;;;;;5149608;28;20521;-64
2023/10/29 11:39:18;;;;;;;5.57;4.10;;;16.20;99.90;;;;;;5180786;28;20024;-65
2023/10/29 11:41:52;;;;;;;4.28;3.88;;;15.80;99.90;;;;;;5147380;28;20028;-67
2023/10/29 11:44:32;;;;;;;5.00;4.05;;;16.00;99.90;;;;;;5180037;28;20025;-64
2023/10/29 11:47:05;;;;;;;7.47;4.65;;;16.50;99.90;;;;;;5156672;28;20128;-62
2023/10/29 11:49:44;;;;;;;4.22;3.60;;;16.90;99.90;;;;;;5146892;28;20034;-67
2023/10/29 11:52:20;;;;;;;5.53;3.83;;;17.20;99.90;;;;;;5151768;28;20036;-62
2023/10/29 11:55:01;;;;;;;5.78;4.38;;;17.60;99.90;;;;;;5181320;28;20167;-65
2023/10/29 11:57:36;;;;;;;4.53;3.78;;;17.50;99.90;;;;;;5176865;28;20148;-66
2023/10/29 12:00:09;;;;;;;4.32;3.92;;;17.70;99.90;;;;;;5157360;28;20299;-65
2023/10/29 12:02:46;;;;;;;4.32;3.90;;;17.80;99.90;;;;;;5146619;28;20326;-64
2023/10/29 12:05:22;;;;;;;4.63;3.97;;;18.00;99.90;;;;;;5196268;28;20180;-65
2023/10/29 12:08:01;;;;;;;4.75;4.25;;;18.30;99.90;;;;;;5163933;28;20034;-63
2023/10/29 12:10:32;;;;;;;5.70;4.18;;;17.00;99.90;;;;;;5185807;28;20060;-64
2023/10/29 12:13:06;;;;;;;7.80;4.03;;;16.20;99.90;;;;;;5177044;28;20340;-63
2023/10/29 12:15:39;;;;;;;5.60;4.03;;;16.10;99.90;;;;;;5197450;28;20295;-64
2023/10/29 12:18:21;;;;;;;4.45;4.05;;;16.40;99.90;;;;;;5168015;28;20162;-64
2023/10/29 12:21:10;;;;;;;4.47;3.75;;;16.60;99.90;;;;;;5183455;28;20022;-63
2023/10/29 12:23:41;;;;;;;4.43;3.95;;;16.60;99.90;;;;;;5165714;28;20025;-66
2023/10/29 12:26:16;;;;;;;4.05;3.63;;;16.50;99.90;;;;;;5186678;28;20048;-63
2023/10/29 12:28:47;;;;;;;;;;;16.30;99.90;;;;;;5170200;28;20165;-64
2023/10/29 12:31:30;;;;;;;5.32;3.47;;;16.60;99.90;;;;;;5180588;28;19902;-65
2023/10/29 12:34:01;;;;;;;4.60;3.42;;;17.00;99.90;;;;;;5184616;28;20048;-64
2023/10/29 12:36:32;;;;;;;4.45;3.70;;;17.10;99.90;;;;;;5149417;28;20063;-65
2023/10/29 12:39:04;;;;;;;4.13;3.30;;;17.90;99.90;;;;;;5171176;28;20230;-62
2023/10/29 12:41:35;;;;;;;4.00;3.50;;;18.40;99.90;;;;;;5150289;28;20057;-64
2023/10/29 12:44:17;;;;;;;3.25;2.88;;;18.20;99.90;;;;;;5166308;28;20052;-64
2023/10/29 12:46:49;;;;;;;4.85;3.22;;;18.40;99.90;;;;;;5147999;28;20022;-64
2023/10/29 12:49:25;;;;;;;3.25;2.83;;;18.50;99.90;;;;;;5184741;28;20210;-60
2023/10/29 12:51:56;;;;;;;4.22;3.72;;;18.10;99.90;;;;;;5160668;28;20034;-61
2023/10/29 12:54:29;;;;;;;5.70;4.15;;;18.00;99.90;;;;;;5177508;28;20030;-59
2023/10/29 12:57:02;;;;;;;4.93;3.95;;;16.80;99.90;;;;;;5193546;28;20018;-63
2023/10/29 12:59:33;;;;;;;5.70;3.50;;;15.90;99.90;;;;;;5159295;28;20025;-61
2023/10/29 13:02:06;;;;;;;6.00;3.40;;;15.70;1.00;;;;;;5190329;28;20275;-61
2023/10/29 13:04:37;;;;;;;5.05;3.85;;;15.70;99.90;;;;;;5206063;28;20045;-61
2023/10/29 13:07:08;;;;;;;4.75;3.78;;;15.80;1.00;;;;;;5156103;28;20041;-66
2023/10/29 13:09:42;;;;;;;5.10;3.55;;;15.60;29.70;;;;;;5184741;28;20322;-60
2023/10/29 13:12:16;;;;;;;6.88;3.60;;;15.40;1.00;;;;;;5192702;28;20268;-62
2023/10/29 13:14:50;;;;;;;4.38;3.97;;;15.20;1.00;;;;;;5163554;28;20026;-63
2023/10/29 13:17:21;;;;;;;4.57;4.18;;;15.10;55.70;;;;;;5192614;28;20025;-60
2023/10/29 13:19:53;;;;;;;4.15;3.67;;;14.90;99.90;;;;;;5191299;28;20029;-62
2023/10/29 13:22:24;;;;;;;3.78;3.47;;;14.80;99.90;;;;;;5193332;28;20025;-64
2023/10/29 13:24:58;;;;;;;4.53;3.72;;;14.80;99.90;;;;;;5175101;28;20034;-63